Time;durP1;ratioP1;P1;durP2;ratioP2;P2;SDS_P1;SDS_P2;PMS_P1;PMS_P2;Temp;Humidity;BMP_temperature;BMP_pressure;BME280_temperature;BME280_humidity;BME280_pressure;Samples;Min_cycle;Max_cycle;Signal;HPM_P1;HPM_P2
2022/05/12 00:01:58;;;;;;;9.67;5.00;;;16.00;1.00;;;;;;5114019;28;20765;-76
2022/05/12 00:04:24;;;;;;;7.83;4.80;;;16.00;1.00;;;;;;5095610;28;20175;-76
2022/05/12 00:06:50;;;;;;;7.43;5.23;;;16.00;1.00;;;;;;5113600;28;20714;-76
2022/05/12 00:09:15;;;;;;;7.73;5.33;;;15.90;1.00;;;;;;5113729;28;20205;-76
2022/05/12 00:11:41;;;;;;;10.63;6.40;;;15.90;1.00;;;;;;5095609;28;20190;-76
2022/05/12 00:14:07;;;;;;;7.97;5.93;;;15.70;1.00;;;;;;5113851;28;20315;-76
2022/05/12 00:16:32;;;;;;;9.23;6.20;;;15.70;1.00;;;;;;5095661;28;20182;-76
2022/05/12 00:18:58;;;;;;;10.87;6.30;;;15.60;1.00;;;;;;5113450;28;20727;-76
2022/05/12 00:21:24;;;;;;;9.57;6.60;;;15.60;1.00;;;;;;5113374;28;20205;-76
2022/05/12 00:23:58;;;;;;;10.30;7.23;;;15.50;1.00;;;;;;5113547;28;20167;-76
2022/05/12 00:26:26;;;;;;;10.60;6.93;;;15.40;1.00;;;;;;5113708;28;20548;-76
2022/05/12 00:28:52;;;;;;;11.47;6.77;;;15.40;1.00;;;;;;5113642;28;20163;-76
2022/05/12 00:31:18;;;;;;;10.57;6.47;;;15.40;1.00;;;;;;5113658;28;20199;-76
2022/05/12 00:33:44;;;;;;;12.97;7.00;;;15.40;1.00;;;;;;5113558;28;20568;-76
2022/05/12 00:36:10;;;;;;;12.00;6.97;;;15.50;1.00;;;;;;5113292;28;20255;-76
2022/05/12 00:38:35;;;;;;;8.80;6.70;;;15.40;1.00;;;;;;5095219;28;20551;-76
2022/05/12 00:41:01;;;;;;;8.23;7.13;;;15.30;1.00;;;;;;5113515;28;20243;-76
2022/05/12 00:43:44;;;;;;;13.53;7.13;;;15.20;1.00;;;;;;5113318;28;20545;-76
2022/05/12 00:46:17;;;;;;;11.60;7.93;;;15.10;1.00;;;;;;5098402;28;20338;-76
2022/05/12 00:48:44;;;;;;;9.77;7.87;;;15.00;1.00;;;;;;5117719;28;20698;-76
2022/05/12 00:51:13;;;;;;;11.80;8.30;;;15.00;1.00;;;;;;5117190;28;20214;-76
2022/05/12 00:53:39;;;;;;;15.00;8.73;;;14.90;1.00;;;;;;5117730;28;20171;-77
2022/05/12 00:56:10;;;;;;;13.07;8.57;;;14.80;1.00;;;;;;5117437;28;20206;-75
2022/05/12 00:58:36;;;;;;;12.73;8.80;;;14.70;6.00;;;;;;5117599;28;20174;-78
2022/05/12 01:01:05;;;;;;;14.03;9.03;;;14.60;14.10;;;;;;5117132;28;20222;-76
2022/05/12 01:03:31;;;;;;;14.37;9.10;;;14.50;18.80;;;;;;5117330;28;20163;-76
2022/05/12 01:05:58;;;;;;;15.47;9.30;;;14.50;23.40;;;;;;5117201;28;20175;-76
2022/05/12 01:08:24;;;;;;;13.17;9.47;;;14.50;27.40;;;;;;5117309;28;20167;-75
2022/05/12 01:10:56;;;;;;;16.30;9.60;;;14.50;29.20;;;;;;5117359;28;20179;-77
2022/05/12 01:13:22;;;;;;;13.40;9.47;;;14.50;30.00;;;;;;5117273;28;20170;-78
2022/05/12 01:15:59;;;;;;;10.80;8.67;;;14.50;28.30;;;;;;5098958;28;20160;-76
2022/05/12 01:18:27;;;;;;;13.67;9.97;;;14.40;31.80;;;;;;5098629;28;20179;-75
2022/05/12 01:20:54;;;;;;;11.20;10.00;;;14.40;31.70;;;;;;5116822;28;20199;-76
2022/05/12 01:23:32;;;;;;;14.20;10.13;;;14.40;31.40;;;;;;5117248;28;20167;-76
2022/05/12 01:26:05;;;;;;;13.30;10.53;;;14.40;34.20;;;;;;5117043;28;20235;-75
2022/05/12 01:28:31;;;;;;;14.50;10.20;;;14.50;40.30;;;;;;5116847;28;20163;-76
2022/05/12 01:30:58;;;;;;;13.60;9.97;;;14.60;37.20;;;;;;5116962;28;20197;-76
2022/05/12 01:33:24;;;;;;;12.90;10.43;;;14.60;39.10;;;;;;5098354;28;20254;-76
2022/05/12 01:35:50;;;;;;;16.10;11.20;;;14.60;36.40;;;;;;5116800;28;20255;-76
2022/05/12 01:38:17;;;;;;;14.50;10.37;;;14.60;38.30;;;;;;5098527;28;20204;-76
2022/05/12 01:40:43;;;;;;;11.13;8.80;;;14.70;39.60;;;;;;5116715;28;20206;-76
2022/05/12 01:43:10;;;;;;;12.13;9.17;;;14.70;37.20;;;;;;5098082;28;20532;-76
2022/05/12 01:45:36;;;;;;;14.50;9.50;;;14.70;38.70;;;;;;5116673;28;20259;-76
2022/05/12 01:48:02;;;;;;;12.60;9.83;;;14.80;36.60;;;;;;5116372;28;20673;-75
2022/05/12 01:50:27;;;;;;;16.50;10.20;;;14.90;31.60;;;;;;5116597;28;20181;-76
2022/05/12 01:52:53;;;;;;;14.10;9.53;;;15.00;27.60;;;;;;5116575;28;20224;-76
2022/05/12 01:55:20;;;;;;;16.27;9.30;;;15.10;20.50;;;;;;5116316;28;20643;-76
2022/05/12 01:57:47;;;;;;;13.77;9.03;;;15.20;18.10;;;;;;5116295;28;20163;-76
2022/05/12 02:00:17;;;;;;;13.60;9.67;;;15.30;14.60;;;;;;5116036;28;20227;-76
2022/05/12 02:02:43;;;;;;;12.60;8.70;;;15.30;5.20;;;;;;5097771;28;20171;-77
2022/05/12 02:05:10;;;;;;;13.07;8.40;;;15.20;11.40;;;;;;5116189;28;20194;-76
2022/05/12 02:07:45;;;;;;;12.43;8.07;;;15.00;15.00;;;;;;5116198;28;20174;-76
2022/05/12 02:10:14;;;;;;;13.47;9.00;;;14.90;25.70;;;;;;5116029;28;20186;-76
2022/05/12 02:12:40;;;;;;;14.47;9.07;;;14.80;27.70;;;;;;5116021;28;20247;-76
2022/05/12 02:15:08;;;;;;;14.00;8.87;;;14.90;25.90;;;;;;5116237;28;20606;-76
2022/05/12 02:17:34;;;;;;;13.03;8.67;;;14.90;23.10;;;;;;5115834;28;20175;-76
2022/05/12 02:19:59;;;;;;;15.77;7.80;;;14.80;20.80;;;;;;5115949;28;20685;-77
2022/05/12 02:22:25;;;;;;;14.63;7.20;;;14.80;24.90;;;;;;5097604;28;20639;-76
2022/05/12 02:24:51;;;;;;;14.87;7.03;;;14.70;22.10;;;;;;5097604;28;20503;-76
2022/05/12 02:27:16;;;;;;;16.67;7.23;;;14.60;21.60;;;;;;5115863;28;20216;-76
2022/05/12 02:29:42;;;;;;;11.43;6.17;;;14.50;23.40;;;;;;5115892;28;20172;-76
2022/05/12 02:32:08;;;;;;;11.17;6.57;;;14.50;23.50;;;;;;5097054;28;20198;-76
2022/05/12 02:34:34;;;;;;;12.47;6.63;;;14.60;20.40;;;;;;5115830;28;20172;-76
2022/05/12 02:37:01;;;;;;;13.93;6.73;;;14.50;24.30;;;;;;5097427;28;20182;-76
2022/05/12 02:39:35;;;;;;;12.47;6.13;;;14.50;23.40;;;;;;5097509;28;20499;-76
2022/05/12 02:42:01;;;;;;;13.47;6.53;;;14.60;20.70;;;;;;5115350;28;20207;-78
2022/05/12 02:44:27;;;;;;;13.73;6.80;;;14.60;18.80;;;;;;5115475;28;20174;-76
2022/05/12 02:46:53;;;;;;;16.13;6.50;;;14.60;12.10;;;;;;5115151;28;20167;-76
2022/05/12 02:49:18;;;;;;;13.70;6.50;;;14.50;17.70;;;;;;5097231;28;20167;-76
2022/05/12 02:51:44;;;;;;;14.10;6.37;;;14.40;20.10;;;;;;5114805;28;20254;-76
2022/05/12 02:54:11;;;;;;;14.40;6.27;;;14.30;17.00;;;;;;5115350;28;20175;-76
2022/05/12 02:56:38;;;;;;;12.70;6.07;;;14.30;18.20;;;;;;5115417;28;20163;-76
2022/05/12 02:59:05;;;;;;;18.67;6.20;;;14.30;21.70;;;;;;5114974;28;20178;-76
2022/05/12 03:01:31;;;;;;;10.93;5.70;;;14.40;21.30;;;;;;5114627;28;20213;-77
2022/05/12 03:03:57;;;;;;;14.60;6.07;;;14.30;17.00;;;;;;5115037;28;20167;-76
2022/05/12 03:06:23;;;;;;;13.43;5.47;;;14.40;16.50;;;;;;5114964;28;20163;-76
2022/05/12 03:08:49;;;;;;;13.97;6.03;;;14.40;10.70;;;;;;5096307;28;20627;-76
2022/05/12 03:11:15;;;;;;;15.10;6.33;;;14.50;9.00;;;;;;5114956;28;20198;-76
2022/05/12 03:13:40;;;;;;;10.57;5.63;;;14.60;4.60;;;;;;5114895;28;20210;-76
2022/05/12 03:16:06;;;;;;;13.77;6.03;;;14.50;1.10;;;;;;5114583;28;20567;-76
2022/05/12 03:18:32;;;;;;;13.50;5.50;;;14.40;7.30;;;;;;5114374;28;20286;-76
2022/05/12 03:20:57;;;;;;;13.83;5.87;;;14.40;5.50;;;;;;5096217;28;20237;-76
2022/05/12 03:23:23;;;;;;;9.17;4.90;;;14.40;8.80;;;;;;5114612;28;20160;-76
2022/05/12 03:25:51;;;;;;;14.73;5.40;;;14.50;6.20;;;;;;5114438;28;20168;-76
2022/05/12 03:28:17;;;;;;;14.83;4.90;;;14.40;8.30;;;;;;5114599;28;20175;-76
2022/05/12 03:30:43;;;;;;;11.03;5.30;;;14.40;9.30;;;;;;5113995;28;20178;-76
2022/05/12 03:33:10;;;;;;;15.10;5.00;;;14.40;6.90;;;;;;5114475;28;20206;-76
2022/05/12 03:35:36;;;;;;;10.23;4.53;;;14.40;6.50;;;;;;5095988;28;20695;-76
2022/05/12 03:38:03;;;;;;;14.87;5.50;;;14.40;1.20;;;;;;5113881;28;20171;-76
2022/05/12 03:40:28;;;;;;;11.13;5.17;;;14.40;1.70;;;;;;5113691;28;20344;-75
2022/05/12 03:42:58;;;;;;;12.73;5.70;;;14.40;3.90;;;;;;5095907;28;20584;-76
2022/05/12 03:45:27;;;;;;;14.00;5.33;;;14.40;1.00;;;;;;5113940;28;20171;-75
2022/05/12 03:47:55;;;;;;;13.50;4.90;;;14.30;4.30;;;;;;5113878;28;20175;-76
2022/05/12 03:50:23;;;;;;;16.50;5.70;;;14.20;9.60;;;;;;5113783;28;20203;-77
2022/05/12 03:52:50;;;;;;;12.83;5.30;;;14.20;16.50;;;;;;5114099;28;20247;-77
2022/05/12 03:55:19;;;;;;;12.90;5.73;;;14.20;14.90;;;;;;5095456;28;20729;-77
2022/05/12 03:57:46;;;;;;;10.80;5.27;;;14.10;17.70;;;;;;5113390;28;20209;-76
2022/05/12 04:00:18;;;;;;;12.57;5.33;;;14.00;17.70;;;;;;5094684;28;20211;-76
2022/05/12 04:02:44;;;;;;;13.30;5.80;;;14.00;21.00;;;;;;5113504;28;20228;-75
2022/05/12 04:05:10;;;;;;;12.27;5.37;;;14.00;24.50;;;;;;5113733;28;20252;-78
2022/05/12 04:07:40;;;;;;;11.00;5.73;;;14.00;22.50;;;;;;5113452;28;20618;-78
2022/05/12 04:10:06;;;;;;;11.13;5.50;;;13.90;22.20;;;;;;5113274;28;20183;-76
2022/05/12 04:12:32;;;;;;;14.13;5.53;;;13.80;33.50;;;;;;5094843;28;20183;-78
2022/05/12 04:14:59;;;;;;;16.97;5.93;;;13.90;31.50;;;;;;5113173;28;20254;-77
2022/05/12 04:17:25;;;;;;;15.10;5.63;;;14.00;28.30;;;;;;5113407;28;20175;-77
2022/05/12 04:19:52;;;;;;;13.97;5.27;;;14.10;24.90;;;;;;5112128;28;20194;-77
2022/05/12 04:22:18;;;;;;;10.27;5.50;;;14.00;24.40;;;;;;5113344;28;20246;-76
2022/05/12 04:24:44;;;;;;;11.90;5.93;;;14.10;24.00;;;;;;5113302;28;20167;-77
2022/05/12 04:27:10;;;;;;;15.57;6.13;;;14.00;19.80;;;;;;5094590;28;20183;-77
2022/05/12 04:29:44;;;;;;;13.80;5.93;;;13.90;25.00;;;;;;5113048;28;20231;-77
2022/05/12 04:32:10;;;;;;;11.87;5.93;;;14.10;28.40;;;;;;5113169;28;20175;-77
2022/05/12 04:37:31;;;;;;;14.37;6.60;;;14.20;14.40;;;;;;5112716;28;20177;-77
2022/05/12 04:40:06;;;;;;;14.60;6.00;;;14.20;15.80;;;;;;5094582;28;20538;-77
2022/05/12 04:42:32;;;;;;;15.53;6.57;;;14.30;17.60;;;;;;5094377;28;20166;-78
2022/05/12 04:44:58;;;;;;;11.00;5.93;;;14.30;9.70;;;;;;5113637;28;20481;-77
2022/05/12 04:47:23;;;;;;;13.27;6.57;;;14.50;16.10;;;;;;5113023;28;20168;-77
2022/05/12 04:49:50;;;;;;;13.33;7.00;;;14.80;1.00;;;;;;5094562;28;20266;-78
2022/05/12 04:52:16;;;;;;;14.27;6.10;;;14.90;1.00;;;;;;5112425;28;20205;-77
2022/05/12 04:54:41;;;;;;;12.73;6.47;;;14.80;1.00;;;;;;5111907;28;20622;-77
2022/05/12 04:57:07;;;;;;;12.73;6.33;;;14.80;1.00;;;;;;5112313;28;20179;-77
2022/05/12 04:59:33;;;;;;;13.37;6.30;;;14.90;1.00;;;;;;5112135;28;20226;-76
2022/05/12 05:02:00;;;;;;;12.90;6.80;;;15.00;1.00;;;;;;5112043;28;20217;-78
2022/05/12 05:04:26;;;;;;;16.93;7.50;;;15.10;1.00;;;;;;5112727;28;20641;-79
2022/05/12 05:06:52;;;;;;;14.50;6.70;;;15.10;1.00;;;;;;5112510;28;20163;-77
2022/05/12 05:09:18;;;;;;;14.97;7.07;;;14.70;1.00;;;;;;5112229;28;20649;-77
2022/05/12 05:11:43;;;;;;;14.30;6.57;;;14.60;1.00;;;;;;5112012;28;20174;-77
2022/05/12 05:14:09;;;;;;;18.03;7.50;;;14.50;1.00;;;;;;5112403;28;20168;-77
2022/05/12 05:16:35;;;;;;;15.83;7.80;;;14.50;1.00;;;;;;5094199;28;20657;-77
2022/05/12 05:19:01;;;;;;;15.93;6.90;;;14.60;1.00;;;;;;5112215;28;20312;-77
2022/05/12 05:21:26;;;;;;;15.20;7.30;;;14.80;1.00;;;;;;5093202;28;20223;-77
2022/05/12 05:23:52;;;;;;;18.23;7.73;;;15.00;1.00;;;;;;5111626;28;20168;-76
2022/05/12 05:26:18;;;;;;;14.67;7.17;;;15.10;1.00;;;;;;5111599;28;20182;-75
2022/05/12 05:28:44;;;;;;;16.77;7.07;;;15.30;1.00;;;;;;5093841;28;20566;-75
2022/05/12 05:31:09;;;;;;;17.00;7.20;;;15.40;1.00;;;;;;5113915;28;20617;-75
2022/05/12 05:33:35;;;;;;;18.87;7.63;;;15.60;1.00;;;;;;5097290;28;20477;-76
2022/05/12 05:36:01;;;;;;;18.00;7.93;;;16.00;1.00;;;;;;5097736;28;20593;-76
2022/05/12 05:38:27;;;;;;;20.53;7.37;;;16.30;1.00;;;;;;5116081;28;20182;-79
2022/05/12 05:40:53;;;;;;;15.60;6.73;;;17.40;1.00;;;;;;5114995;28;20263;-78
2022/05/12 05:43:19;;;;;;;12.27;6.93;;;18.60;1.00;;;;;;5115824;28;20640;-77
2022/05/12 05:45:45;;;;;;;13.83;6.83;;;19.10;1.00;;;;;;5097358;28;20602;-79
2022/05/12 05:48:11;;;;;;;13.23;6.57;;;19.00;1.00;;;;;;5096965;28;20199;-78
2022/05/12 05:53:26;;;;;;;16.25;6.95;;;20.30;1.00;;;;;;5116032;28;20193;-78
2022/05/12 05:55:57;;;;;;;12.05;6.63;;;21.10;99.90;;;;;;5114457;28;20579;-80
2022/05/12 05:58:24;;;;;;;12.00;6.07;;;22.50;1.00;;;;;;5116816;28;20167;-81
2022/05/12 06:00:50;;;;;;;9.45;6.47;;;23.10;1.00;;;;;;5095943;28;20296;-83
2022/05/12 06:03:16;;;;;;;11.63;6.30;;;24.40;99.90;;;;;;5093665;28;20538;-81
2022/05/12 06:05:43;;;;;;;10.60;5.90;;;25.50;99.90;;;;;;5094768;28;20191;-81
2022/05/12 06:08:11;;;;;;;12.52;5.90;;;25.50;99.90;;;;;;5092714;28;20262;-81
2022/05/12 06:10:37;;;;;;;13.40;6.20;;;26.20;99.90;;;;;;5094996;28;20172;-80
2022/05/12 06:13:03;;;;;;;10.90;5.75;;;25.50;99.90;;;;;;5096972;28;20197;-81
2022/05/12 06:15:29;;;;;;;11.73;6.53;;;25.20;99.90;;;;;;5099437;28;20240;-79
2022/05/12 06:17:55;;;;;;;14.82;6.28;;;24.30;99.90;;;;;;5095502;28;20179;-81
2022/05/12 06:20:22;;;;;;;14.25;6.72;;;24.80;99.90;;;;;;5092468;28;20216;-80
2022/05/12 06:22:48;;;;;;;13.35;6.68;;;25.60;99.90;;;;;;5094456;28;20168;-79
2022/05/12 06:25:16;;;;;;;14.23;7.10;;;26.10;99.90;;;;;;5094035;28;20221;-79
2022/05/12 06:27:43;;;;;;;11.90;7.30;;;26.90;99.90;;;;;;5094175;28;20170;-79
2022/05/12 06:30:13;;;;;;;11.75;6.75;;;26.90;99.90;;;;;;5093960;28;20171;-79
2022/05/12 06:32:40;;;;;;;10.45;6.15;;;26.40;99.90;;;;;;5092771;28;20183;-79
2022/05/12 06:35:07;;;;;;;11.25;6.53;;;26.70;99.90;;;;;;5093652;28;20694;-80
2022/05/12 06:37:34;;;;;;;12.60;6.97;;;27.50;99.90;;;;;;5094729;28;20285;-80
2022/05/12 06:39:59;;;;;;;13.35;7.40;;;28.10;99.90;;;;;;5094152;28;20172;-79
2022/05/12 06:42:25;;;;;;;14.73;8.57;;;26.90;99.90;;;;;;5092782;28;20221;-80
2022/05/12 06:44:50;;;;;;;12.57;7.45;;;26.70;99.90;;;;;;5094054;28;20524;-79
2022/05/12 06:47:17;;;;;;;12.48;7.53;;;26.30;99.90;;;;;;5093780;28;20522;-80
2022/05/12 06:49:43;;;;;;;16.40;7.75;;;26.90;99.90;;;;;;5094579;28;20183;-80
2022/05/12 06:52:10;;;;;;;15.05;7.25;;;27.60;99.90;;;;;;5094136;28;20262;-81
2022/05/12 06:54:38;;;;;;;12.43;7.28;;;28.80;99.90;;;;;;5092638;28;20164;-81
2022/05/12 06:57:04;;;;;;;11.10;6.75;;;28.60;99.90;;;;;;5092523;28;20607;-80
2022/05/12 06:59:30;;;;;;;10.57;6.70;;;28.30;99.90;;;;;;5091045;28;20681;-80
2022/05/12 07:01:56;;;;;;;10.88;6.15;;;27.80;99.90;;;;;;5093337;28;20306;-79
2022/05/12 07:04:24;;;;;;;12.52;6.43;;;27.80;99.90;;;;;;5093087;28;20584;-82
2022/05/12 07:06:50;;;;;;;11.18;6.30;;;28.90;99.90;;;;;;5093150;28;20286;-82
2022/05/12 07:09:18;;;;;;;11.88;6.20;;;30.30;92.00;;;;;;5096532;28;20160;-81
2022/05/12 07:11:44;;;;;;;11.68;6.47;;;30.00;90.50;;;;;;5092652;28;20249;-80
2022/05/12 07:14:10;;;;;;;12.90;6.65;;;31.10;82.40;;;;;;5081893;28;20173;-79
2022/05/12 07:16:36;;;;;;;10.75;6.00;;;30.40;77.40;;;;;;5081149;28;20219;-82
2022/05/12 07:19:02;;;;;;;8.05;5.65;;;30.70;69.10;;;;;;5087725;28;20573;-78
2022/05/12 07:26:56;;;;;;;8.63;6.10;;;31.70;53.50;;;;;;5075046;28;20203;-75
2022/05/12 07:29:26;;;;;;;9.63;6.50;;;32.00;40.30;;;;;;5083479;28;20168;-76
2022/05/12 07:31:51;;;;;;;12.40;6.68;;;32.50;36.60;;;;;;5084521;28;20183;-76
2022/05/12 07:34:18;;;;;;;7.13;5.97;;;32.50;28.30;;;;;;5091686;28;20491;-77
2022/05/12 07:36:47;;;;;;;12.60;6.70;;;31.50;26.10;;;;;;5079333;28;20271;-75
2022/05/12 07:39:13;;;;;;;12.30;6.47;;;30.60;26.60;;;;;;5088672;28;20172;-75
2022/05/12 07:41:41;;;;;;;7.97;6.18;;;30.40;29.50;;;;;;5088169;28;20646;-75
2022/05/12 07:44:13;;;;;;;9.02;6.32;;;30.60;28.10;;;;;;5083697;28;20192;-77
2022/05/12 07:46:39;;;;;;;10.95;6.13;;;30.50;28.70;;;;;;5091367;28;20721;-76
2022/05/12 07:49:04;;;;;;;9.90;7.32;;;29.70;29.90;;;;;;5083452;28;20247;-76
2022/05/12 07:51:30;;;;;;;10.70;7.05;;;29.50;30.10;;;;;;5085569;28;20267;-76
2022/05/12 07:53:55;;;;;;;11.85;8.10;;;30.40;30.10;;;;;;5084082;28;20188;-78
2022/05/12 07:56:25;;;;;;;15.63;8.18;;;28.60;33.00;;;;;;5076165;28;20500;-77
2022/05/12 07:58:51;;;;;;;18.00;8.27;;;28.80;39.30;;;;;;5081212;28;20176;-79
2022/05/12 08:01:18;;;;;;;12.73;7.75;;;29.70;38.10;;;;;;5102111;28;20221;-79
2022/05/12 08:03:44;;;;;;;10.57;7.82;;;30.00;33.50;;;;;;5106002;28;20509;-75
2022/05/12 08:06:12;;;;;;;15.50;8.10;;;29.60;29.20;;;;;;5099596;28;20195;-76
2022/05/12 08:08:38;;;;;;;13.48;7.63;;;29.20;35.80;;;;;;5110504;28;20171;-77
2022/05/12 08:11:05;;;;;;;16.58;8.50;;;29.10;32.00;;;;;;5101298;28;20565;-78
2022/05/12 08:13:32;;;;;;;14.55;8.70;;;29.60;34.50;;;;;;5101133;28;20226;-76
2022/05/12 08:15:58;;;;;;;12.85;8.88;;;30.10;28.70;;;;;;5100881;28;20171;-76
2022/05/12 08:18:25;;;;;;;11.65;8.45;;;29.50;25.80;;;;;;5107617;28;20182;-73
2022/05/12 08:20:52;;;;;;;12.40;8.38;;;29.90;26.60;;;;;;5098811;28;20257;-75
2022/05/12 08:23:19;;;;;;;13.95;8.32;;;27.90;34.10;;;;;;5109640;28;20174;-76
2022/05/12 08:25:46;;;;;;;10.50;8.60;;;28.30;26.10;;;;;;5111512;28;20175;-78
2022/05/12 08:28:14;;;;;;;11.60;8.60;;;28.70;31.90;;;;;;5110422;28;20163;-77
2022/05/12 08:30:41;;;;;;;12.00;8.75;;;29.70;29.20;;;;;;5109146;28;20184;-75
2022/05/12 08:33:07;;;;;;;14.07;10.52;;;29.00;29.40;;;;;;5105610;28;20182;-74
2022/05/12 08:35:32;;;;;;;13.38;8.57;;;28.10;30.60;;;;;;5104435;28;20168;-77
2022/05/12 08:37:58;;;;;;;11.85;7.78;;;28.60;28.90;;;;;;5101342;28;20303;-76
2022/05/12 08:40:35;;;;;;;11.30;9.32;;;28.60;26.70;;;;;;5104851;28;20210;-75
2022/05/12 08:43:15;;;;;;;16.02;8.60;;;28.10;30.60;;;;;;5102845;28;20187;-75
2022/05/12 08:45:41;;;;;;;10.65;7.93;;;28.40;30.20;;;;;;5097679;28;20217;-74
2022/05/12 08:48:10;;;;;;;12.93;8.52;;;28.50;29.40;;;;;;5105583;28;20194;-74
2022/05/12 08:50:36;;;;;;;16.90;8.85;;;28.80;24.30;;;;;;5104640;28;20275;-73
2022/05/12 08:53:09;;;;;;;11.60;10.27;;;29.70;23.80;;;;;;5104332;28;20176;-73
2022/05/12 08:55:44;;;;;;;16.17;9.43;;;29.10;23.20;;;;;;5082876;28;20175;-76
2022/05/12 08:58:23;;;;;;;11.68;8.82;;;28.40;28.30;;;;;;5098889;28;20174;-77
2022/05/12 09:01:00;;;;;;;13.05;8.43;;;28.20;26.30;;;;;;5104758;28;20265;-81
2022/05/12 09:03:30;;;;;;;16.33;7.80;;;27.60;26.90;;;;;;5080748;28;20175;-79
2022/05/12 09:06:00;;;;;;;11.30;7.40;;;28.90;27.00;;;;;;5105474;28;20175;-77
2022/05/12 09:08:44;;;;;;;10.55;7.50;;;29.40;19.10;;;;;;5112820;28;20210;-77
2022/05/12 09:11:39;;;;;;;10.85;7.22;;;30.00;18.10;;;;;;5111742;28;20222;-78
2022/05/12 09:14:10;;;;;;;9.68;7.90;;;30.20;29.10;;;;;;5106606;28;20263;-78
2022/05/12 09:16:36;;;;;;;11.23;7.95;;;30.30;12.10;;;;;;5087615;28;20587;-74
2022/05/12 09:19:02;;;;;;;10.13;7.20;;;29.10;13.80;;;;;;5104834;27;20206;-75
2022/05/12 09:21:35;;;;;;;14.32;8.55;;;28.40;35.10;;;;;;5106960;28;20207;-75
2022/05/12 09:24:03;;;;;;;18.25;9.35;;;27.90;22.50;;;;;;5101704;28;20279;-77
2022/05/12 09:26:45;;;;;;;11.05;7.47;;;27.50;24.90;;;;;;5107203;28;20210;-76
2022/05/12 09:29:17;;;;;;;10.15;7.15;;;27.70;21.10;;;;;;5096494;28;20183;-76
2022/05/12 09:31:54;;;;;;;9.50;8.18;;;27.80;24.50;;;;;;5098536;27;20213;-80
2022/05/12 09:34:20;;;;;;;10.73;7.55;;;28.60;22.10;;;;;;5090095;28;20179;-81
2022/05/12 09:36:46;;;;;;;9.00;7.10;;;29.50;18.30;;;;;;5106308;28;20172;-79
2022/05/12 09:39:33;;;;;;;12.10;7.63;;;29.40;14.50;;;;;;5107696;28;20185;-78
2022/05/12 09:42:01;;;;;;;7.95;5.97;;;29.60;15.30;;;;;;5105360;28;20209;-79
2022/05/12 09:44:29;;;;;;;12.38;6.47;;;28.50;15.90;;;;;;5109948;28;20183;-77
2022/05/12 09:47:09;;;;;;;7.28;6.38;;;28.40;14.50;;;;;;5109090;28;20163;-79
2022/05/12 09:49:39;;;;;;;11.13;7.15;;;28.00;16.40;;;;;;5110911;28;20634;-75
2022/05/12 09:52:18;;;;;;;9.18;6.93;;;27.70;18.70;;;;;;5110882;28;20183;-78
2022/05/12 09:54:44;;;;;;;9.50;6.80;;;27.80;19.60;;;;;;5106938;28;20183;-77
2022/05/12 09:57:20;;;;;;;10.10;7.22;;;27.60;17.30;;;;;;5101589;28;20626;-77
2022/05/12 09:59:56;;;;;;;11.80;7.82;;;27.70;15.70;;;;;;5106136;28;20271;-79
2022/05/12 10:07:53;;;;;;;12.30;8.85;;;27.90;17.10;;;;;;5109578;28;20225;-78
2022/05/12 10:08:09;;;;;;;18.20;13.50;;;26.10;22.30;;;;;;5109037;28;20190;-78
2022/05/12 10:10:36;;;;;;;15.35;12.27;;;25.70;24.60;;;;;;5104215;28;20175;-80
2022/05/12 10:13:27;;;;;;;17.60;12.88;;;25.80;25.30;;;;;;5108037;28;20208;-79
2022/05/12 10:15:54;;;;;;;16.98;13.30;;;26.60;26.30;;;;;;5099018;28;20191;-79
2022/05/12 10:18:38;;;;;;;17.67;13.65;;;27.40;21.80;;;;;;5088713;28;20236;-77
2022/05/12 10:21:20;;;;;;;13.00;11.57;;;27.90;20.90;;;;;;5109757;28;20195;-79
2022/05/12 10:24:10;;;;;;;12.88;9.18;;;27.20;19.60;;;;;;5089410;28;20587;-76
2022/05/12 10:26:51;;;;;;;8.40;5.72;;;27.30;18.40;;;;;;5100716;28;20640;-71
2022/05/12 10:29:36;;;;;;;7.75;7.05;;;26.70;16.00;;;;;;5104452;28;20221;-71
2022/05/12 10:32:56;;;;;;;8.93;7.15;;;26.10;18.40;;;;;;5104673;28;20188;-70
2022/05/12 10:35:31;;;;;;;9.30;6.53;;;26.80;21.40;;;;;;5007463;28;20183;-71
2022/05/12 10:38:06;;;;;;;7.03;6.32;;;26.90;19.00;;;;;;5005521;28;20190;-72
2022/05/12 10:40:57;;;;;;;10.13;6.38;;;26.60;14.40;;;;;;5008044;28;20194;-72
2022/05/12 10:43:25;;;;;;;7.28;6.57;;;26.50;19.40;;;;;;5008768;28;20665;-71
2022/05/12 10:46:11;;;;;;;8.68;6.70;;;26.30;19.30;;;;;;5008272;28;20178;-71
2022/05/12 10:48:53;;;;;;;10.52;6.55;;;25.80;20.20;;;;;;5005174;28;20194;-75
2022/05/12 10:51:52;;;;;;;7.95;5.65;;;26.10;42.30;;;;;;5009004;28;20224;-75
2022/05/12 10:54:55;;;;;;;11.95;6.93;;;26.60;19.50;;;;;;5009340;28;20727;-73
2022/05/12 10:57:35;;;;;;;8.60;5.10;;;26.10;18.40;;;;;;5005556;28;20278;-73
2022/05/12 11:00:27;;;;;;;14.77;5.38;;;26.40;17.00;;;;;;5007554;28;20218;-73
2022/05/12 11:02:57;;;;;;;9.20;5.22;;;26.30;16.60;;;;;;5007230;28;20199;-73
2022/05/12 11:05:37;;;;;;;7.18;5.25;;;25.90;19.50;;;;;;5008574;28;20234;-72
2022/05/12 11:08:25;;;;;;;6.70;4.93;;;25.40;20.60;;;;;;5007658;28;20298;-71
2022/05/12 11:11:00;;;;;;;10.77;4.72;;;24.70;16.30;;;;;;5108331;28;20176;-73
2022/05/12 11:13:32;;;;;;;8.32;4.70;;;24.80;27.50;;;;;;5103423;28;20194;-73
2022/05/12 11:16:22;;;;;;;6.53;4.10;;;24.70;27.90;;;;;;5110134;28;20167;-74
2022/05/12 11:18:58;;;;;;;5.32;4.00;;;24.30;29.30;;;;;;5092161;28;20263;-74
2022/05/12 11:21:29;;;;;;;6.32;3.70;;;24.40;26.30;;;;;;5090079;28;20206;-73
2022/05/12 11:24:16;;;;;;;4.80;3.20;;;24.50;29.00;;;;;;5105739;28;20175;-74
2022/05/12 11:27:03;;;;;;;6.40;3.22;;;24.70;27.00;;;;;;5109896;28;20213;-73
2022/05/12 11:29:59;;;;;;;7.20;3.22;;;25.00;26.80;;;;;;5110659;28;20177;-73
2022/05/12 11:32:57;;;;;;;6.95;3.03;;;24.90;27.40;;;;;;5111326;28;20227;-75
2022/05/12 11:35:32;;;;;;;7.05;2.92;;;25.20;25.50;;;;;;5108199;28;20183;-74
2022/05/12 11:38:02;;;;;;;4.28;2.58;;;25.10;23.70;;;;;;5098431;28;20208;-75
2022/05/12 11:40:44;;;;;;;5.32;2.53;;;25.70;24.40;;;;;;5096490;28;20257;-73
2022/05/12 11:46:22;;;;;;;6.03;2.75;;;24.10;27.90;;;;;;5105259;28;20220;-73
2022/05/12 11:48:55;;;;;;;4.65;2.65;;;24.00;29.30;;;;;;5083824;28;20171;-72
2022/05/12 11:51:41;;;;;;;6.28;2.90;;;24.90;27.30;;;;;;5105336;28;20209;-73
2022/05/12 11:54:26;;;;;;;4.47;2.53;;;24.70;27.10;;;;;;5074383;28;20186;-72
2022/05/12 11:56:56;;;;;;;6.82;2.85;;;24.60;27.50;;;;;;5102640;28;20557;-72
2022/05/12 11:59:30;;;;;;;5.55;2.95;;;23.90;30.40;;;;;;5107767;28;20290;-73
2022/05/12 12:01:59;;;;;;;8.05;2.50;;;24.10;33.10;;;;;;5104184;28;20206;-75
2022/05/12 12:04:40;;;;;;;7.13;2.78;;;24.50;32.90;;;;;;5082163;28;20172;-75
2022/05/12 12:07:07;;;;;;;3.80;2.70;;;24.30;31.40;;;;;;5101842;28;20175;-75
2022/05/12 12:09:36;;;;;;;5.13;2.50;;;24.40;30.10;;;;;;5102687;28;20189;-73
2022/05/12 12:12:05;;;;;;;4.88;2.92;;;23.90;31.20;;;;;;5104013;28;20195;-72
2022/05/12 12:14:43;;;;;;;5.25;2.72;;;23.60;35.80;;;;;;5104934;28;20178;-73
2022/05/12 12:17:27;;;;;;;5.28;2.63;;;23.40;36.10;;;;;;5102617;28;20706;-74
2022/05/12 12:19:58;;;;;;;6.60;2.65;;;22.90;43.70;;;;;;5097259;28;20598;-72
2022/05/12 12:22:48;;;;;;;6.68;2.70;;;22.90;45.10;;;;;;5100717;28;20279;-71
2022/05/12 12:25:29;;;;;;;8.15;3.00;;;23.30;45.30;;;;;;5103782;28;20215;-71
2022/05/12 12:27:57;;;;;;;7.50;2.42;;;23.70;43.20;;;;;;5102693;28;20206;-71
2022/05/12 12:30:33;;;;;;;5.78;2.47;;;23.30;44.30;;;;;;5107816;28;20216;-73
2022/05/12 12:33:29;;;;;;;5.93;2.65;;;23.00;49.60;;;;;;5084667;28;20675;-72
2022/05/12 12:36:06;;;;;;;4.53;2.00;;;23.00;51.00;;;;;;5104038;28;20232;-73
2022/05/12 12:38:47;;;;;;;6.63;2.72;;;23.10;52.90;;;;;;5107104;28;20178;-72
2022/05/12 12:41:33;;;;;;;5.38;2.40;;;22.90;53.40;;;;;;5106240;28;20486;-71
2022/05/12 12:44:04;;;;;;;5.38;2.30;;;23.40;53.00;;;;;;5100982;28;20273;-73
2022/05/12 12:46:54;;;;;;;4.07;2.42;;;23.40;53.30;;;;;;5107354;28;20202;-73
2022/05/12 12:49:28;;;;;;;8.65;2.47;;;23.40;51.60;;;;;;5100163;28;20183;-71
2022/05/12 12:52:03;;;;;;;5.72;2.42;;;23.30;51.80;;;;;;5085714;28;20612;-71
2022/05/12 12:57:38;;;;;;;4.65;2.40;;;23.20;48.40;;;;;;5099831;28;20232;-71
2022/05/12 13:00:11;;;;;;;3.58;2.20;;;23.50;51.10;;;;;;5091408;28;20234;-73
2022/05/12 13:02:43;;;;;;;3.85;2.30;;;23.70;42.80;;;;;;5100173;28;20201;-72
2022/05/12 13:05:16;;;;;;;7.25;2.25;;;23.50;46.80;;;;;;5094851;28;20194;-71
2022/05/12 13:07:43;;;;;;;4.97;2.38;;;23.80;49.40;;;;;;5082077;28;20175;-71
2022/05/12 13:10:16;;;;;;;5.68;2.22;;;24.00;40.80;;;;;;5101269;28;20183;-73
2022/05/12 13:13:00;;;;;;;6.07;2.30;;;24.10;42.00;;;;;;5105123;28;20194;-72
2022/05/12 13:15:27;;;;;;;4.40;2.25;;;23.70;42.50;;;;;;5099812;28;20698;-72
2022/05/12 13:17:58;;;;;;;7.93;2.30;;;23.70;45.40;;;;;;5102439;28;20179;-71